createdAt,value
2023-05-05T00:00:41.805Z,12.71
2023-05-05T00:03:09.325Z,12.71
2023-05-05T00:05:38.126Z,12.71
2023-05-05T00:08:05.574Z,12.71
2023-05-05T00:10:33.422Z,12.68
2023-05-05T00:13:00.830Z,12.65
2023-05-05T00:15:28.328Z,12.62
2023-05-05T00:17:56.103Z,12.62
2023-05-05T00:20:23.507Z,12.57
2023-05-05T00:22:52.591Z,12.57
2023-05-05T00:25:20.075Z,12.62
2023-05-05T00:27:47.554Z,12.60
2023-05-05T00:30:15.057Z,12.59
2023-05-05T00:32:42.853Z,12.60
2023-05-05T00:35:10.368Z,12.61
2023-05-05T00:37:37.770Z,12.58
2023-05-05T00:40:08.225Z,12.49
2023-05-05T00:42:40.488Z,12.48
2023-05-05T00:45:09.410Z,12.40
2023-05-05T00:47:37.626Z,12.40
2023-05-05T00:50:09.170Z,12.36
2023-05-05T00:52:37.558Z,12.30
2023-05-05T00:55:07.703Z,12.28
2023-05-05T00:57:35.594Z,12.27
2023-05-05T01:00:03.664Z,12.25
2023-05-05T01:02:31.705Z,12.25
2023-05-05T01:05:00.189Z,12.27
2023-05-05T01:07:40.731Z,12.23
2023-05-05T01:10:20.295Z,12.16
2023-05-05T01:12:58.159Z,12.14
2023-05-05T01:15:33.238Z,12.10
2023-05-05T01:18:10.006Z,11.98
2023-05-05T01:20:44.828Z,11.89
2023-05-05T01:23:24.074Z,11.93
2023-05-05T01:26:15.285Z,11.92
2023-05-05T01:29:02.990Z,11.88
2023-05-05T01:31:42.598Z,11.74
2023-05-05T01:34:16.582Z,11.78
2023-05-05T01:36:49.502Z,11.72
2023-05-05T01:39:18.437Z,11.70
2023-05-05T01:41:49.027Z,11.73
2023-05-05T01:44:18.748Z,11.69
2023-05-05T01:46:50.335Z,11.71
2023-05-05T01:49:17.956Z,11.67
2023-05-05T01:51:47.146Z,11.67
2023-05-05T01:54:16.944Z,11.64
2023-05-05T01:56:46.294Z,11.61
2023-05-05T01:59:13.996Z,11.54
2023-05-05T02:01:44.669Z,11.54
2023-05-05T02:04:14.984Z,11.54
2023-05-05T02:06:44.290Z,11.53
2023-05-05T02:09:13.882Z,11.53
2023-05-05T02:11:41.829Z,11.50
2023-05-05T02:14:11.294Z,11.48
2023-05-05T02:16:41.325Z,11.47
2023-05-05T02:19:09.406Z,11.41
2023-05-05T02:21:38.447Z,11.45
2023-05-05T02:24:07.750Z,11.42
2023-05-05T02:26:38.568Z,11.37
2023-05-05T02:29:09.499Z,11.32
2023-05-05T02:31:42.089Z,11.30
2023-05-05T02:34:11.512Z,11.25
2023-05-05T02:36:44.612Z,11.19
2023-05-05T02:39:20.195Z,11.19
2023-05-05T02:41:50.340Z,11.16
2023-05-05T02:44:27.794Z,11.13
2023-05-05T02:46:56.402Z,11.08
2023-05-05T02:49:24.880Z,11.06
2023-05-05T02:51:59.105Z,11.01
2023-05-05T02:54:31.625Z,11.05
2023-05-05T02:57:00.601Z,11.07
2023-05-05T02:59:47.623Z,11.09
2023-05-05T03:02:24.714Z,11.05
2023-05-05T03:05:00.810Z,11.07
2023-05-05T03:07:39.327Z,11.05
2023-05-05T03:10:10.297Z,10.97
2023-05-05T03:12:48.561Z,11.01
2023-05-05T03:15:26.401Z,10.98
2023-05-05T03:17:56.621Z,10.94
2023-05-05T03:20:24.884Z,10.87
2023-05-05T03:22:54.808Z,10.83
2023-05-05T03:25:22.800Z,10.83
2023-05-05T03:27:50.980Z,10.81
2023-05-05T03:30:21.330Z,10.77
2023-05-05T03:32:51.660Z,10.71
2023-05-05T03:35:19.549Z,10.66
2023-05-05T03:37:47.011Z,10.64
2023-05-05T03:40:18.117Z,10.55
2023-05-05T03:42:45.747Z,10.58
2023-05-05T03:45:13.673Z,10.53
2023-05-05T03:47:41.185Z,10.48
2023-05-05T03:50:09.460Z,10.46
2023-05-05T03:52:37.014Z,10.35
2023-05-05T03:55:05.065Z,10.32
2023-05-05T03:57:34.389Z,10.34
2023-05-05T04:00:01.995Z,10.34
2023-05-05T04:02:31.281Z,10.33
2023-05-05T04:04:58.849Z,10.38
2023-05-05T04:07:27.185Z,10.41
2023-05-05T04:09:56.043Z,10.47
2023-05-05T04:12:23.730Z,10.48
2023-05-05T04:14:52.703Z,10.52
2023-05-05T04:17:20.355Z,10.59
2023-05-05T04:19:48.069Z,10.58
2023-05-05T04:22:15.780Z,10.58
2023-05-05T04:24:43.371Z,10.63
2023-05-05T04:27:11.075Z,10.65
2023-05-05T04:29:38.707Z,10.64
2023-05-05T04:32:07.602Z,10.62
2023-05-05T04:34:35.214Z,10.68
2023-05-05T04:37:04.704Z,10.74
2023-05-05T04:39:32.304Z,10.78
2023-05-05T04:41:59.977Z,10.81
2023-05-05T04:44:27.611Z,10.86
2023-05-05T04:46:55.358Z,10.93
2023-05-05T04:49:24.363Z,11.00
2023-05-05T04:51:51.849Z,11.09
2023-05-05T04:54:19.254Z,11.17
2023-05-05T04:56:47.052Z,11.32
2023-05-05T04:59:14.655Z,11.39
2023-05-05T05:01:42.416Z,11.47
2023-05-05T05:04:13.798Z,11.58
2023-05-05T05:06:42.650Z,11.65
2023-05-05T05:09:10.177Z,11.77
2023-05-05T05:11:37.583Z,11.85
2023-05-05T05:14:05.048Z,11.93
2023-05-05T05:16:32.712Z,12.04
2023-05-05T05:19:01.694Z,12.22
2023-05-05T05:21:31.610Z,12.38
2023-05-05T05:24:00.629Z,12.53
2023-05-05T05:26:28.562Z,12.68
2023-05-05T05:28:56.298Z,12.87
2023-05-05T05:31:24.752Z,13.06
2023-05-05T05:33:52.378Z,13.23
2023-05-05T05:36:19.888Z,13.38
2023-05-05T05:38:47.655Z,13.55
2023-05-05T05:41:16.899Z,13.65
2023-05-05T05:43:44.540Z,13.68
2023-05-05T05:46:12.482Z,13.76
2023-05-05T05:48:41.156Z,13.82
2023-05-05T05:51:09.222Z,13.88
2023-05-05T05:53:36.756Z,13.93
2023-05-05T05:56:05.048Z,14.00
2023-05-05T05:58:33.794Z,14.07
2023-05-05T06:01:01.258Z,14.16
2023-05-05T06:03:30.508Z,14.20
2023-05-05T06:05:59.305Z,14.20
2023-05-05T06:08:26.969Z,14.23
2023-05-05T06:10:57.744Z,14.28
2023-05-05T06:13:25.214Z,14.34
2023-05-05T06:15:54.734Z,14.39
2023-05-05T06:18:22.311Z,14.48
2023-05-05T06:20:50.761Z,14.66
2023-05-05T06:23:19.318Z,14.82
2023-05-05T06:25:54.222Z,14.89
2023-05-05T06:28:21.836Z,15.03
2023-05-05T06:30:49.283Z,15.11
2023-05-05T06:33:18.226Z,15.24
2023-05-05T06:35:47.105Z,15.47
2023-05-05T06:38:14.724Z,15.64
2023-05-05T06:40:42.221Z,15.91
2023-05-05T06:43:09.559Z,16.18
2023-05-05T06:45:43.738Z,16.33
2023-05-05T06:48:11.731Z,16.76
2023-05-05T06:50:40.877Z,17.10
2023-05-05T06:53:08.448Z,17.26
2023-05-05T06:55:35.970Z,17.51
2023-05-05T06:58:06.480Z,17.58
2023-05-05T07:00:34.132Z,17.82
2023-05-05T07:03:01.827Z,18.06
2023-05-05T07:05:29.324Z,18.18
2023-05-05T07:07:58.375Z,18.35
2023-05-05T07:10:26.306Z,18.54
2023-05-05T07:12:55.129Z,18.64
2023-05-05T07:15:28.671Z,18.88
2023-05-05T07:17:57.311Z,18.87
2023-05-05T07:20:25.329Z,19.02
2023-05-05T07:22:52.787Z,19.21
2023-05-05T07:25:21.828Z,18.97
2023-05-05T07:27:49.288Z,18.74
2023-05-05T07:30:18.849Z,18.77
2023-05-05T07:32:47.079Z,18.60
2023-05-05T07:35:14.738Z,19.03
2023-05-05T07:37:42.459Z,18.92
2023-05-05T07:40:10.744Z,18.91
2023-05-05T07:42:39.869Z,18.74
2023-05-05T07:45:08.418Z,18.95
2023-05-05T07:47:36.004Z,18.97
2023-05-05T07:50:03.787Z,18.98
2023-05-05T07:52:45.237Z,19.00
2023-05-05T07:55:18.438Z,19.14
2023-05-05T07:57:47.469Z,19.17
2023-05-05T08:00:15.740Z,19.35
2023-05-05T08:02:44.073Z,19.52
2023-05-05T08:05:12.695Z,19.50
2023-05-05T08:07:41.628Z,19.76
2023-05-05T08:10:10.632Z,19.82
2023-05-05T08:12:38.612Z,20.07
2023-05-05T08:15:08.266Z,20.28
2023-05-05T08:17:47.630Z,20.65
2023-05-05T08:20:15.575Z,21.48
2023-05-05T08:22:43.296Z,22.19
2023-05-05T08:25:11.324Z,21.97
2023-05-05T08:27:38.774Z,21.86
2023-05-05T08:30:09.508Z,21.72
2023-05-05T08:32:38.335Z,21.30
2023-05-05T08:35:07.269Z,20.76
2023-05-05T08:37:35.188Z,20.75
2023-05-05T08:40:02.667Z,20.52
2023-05-05T08:42:38.230Z,20.28
2023-05-05T08:45:10.929Z,20.14
2023-05-05T08:47:39.323Z,19.85
2023-05-05T08:50:10.885Z,19.59
2023-05-05T08:52:40.750Z,19.26
2023-05-05T08:55:14.521Z,19.26
2023-05-05T08:57:49.558Z,19.17
2023-05-05T09:00:20.532Z,19.10
2023-05-05T09:02:48.958Z,19.00
2023-05-05T09:05:17.024Z,18.77
2023-05-05T09:07:45.556Z,18.65
2023-05-05T09:10:13.229Z,18.54
2023-05-05T09:12:41.560Z,18.49
2023-05-05T09:15:10.638Z,18.35
2023-05-05T09:17:40.348Z,18.27
2023-05-05T09:20:09.899Z,18.10
2023-05-05T09:22:39.145Z,17.98
2023-05-05T09:25:09.339Z,17.67
2023-05-05T09:27:38.008Z,17.34
2023-05-05T09:30:07.272Z,17.01
2023-05-05T09:32:47.319Z,16.83
2023-05-05T09:35:15.426Z,16.75
2023-05-05T09:37:43.255Z,16.72
2023-05-05T09:40:13.381Z,16.77
2023-05-05T09:42:41.559Z,16.87
2023-05-05T09:45:25.003Z,16.98
2023-05-05T09:47:59.059Z,17.04
2023-05-05T09:50:30.710Z,17.13
2023-05-05T09:53:00.035Z,17.16
2023-05-05T09:55:27.913Z,17.12
2023-05-05T09:57:56.041Z,17.21
2023-05-05T10:00:37.232Z,17.30
2023-05-05T10:03:06.800Z,17.32
2023-05-05T10:05:48.017Z,17.32
2023-05-05T10:08:16.802Z,17.44
2023-05-05T10:10:49.626Z,17.47
2023-05-05T10:13:19.738Z,17.54
2023-05-05T10:15:49.247Z,17.60
2023-05-05T10:18:22.062Z,17.64
2023-05-05T10:20:56.043Z,17.55
2023-05-05T10:23:27.264Z,17.52
2023-05-05T10:26:01.638Z,17.64
2023-05-05T10:28:33.234Z,17.80
2023-05-05T10:31:05.777Z,17.77
2023-05-05T10:33:49.694Z,17.95
2023-05-05T10:36:19.708Z,18.23
2023-05-05T10:38:49.065Z,18.47
2023-05-05T10:41:19.219Z,18.72
2023-05-05T10:43:47.527Z,19.46
2023-05-05T10:46:15.648Z,20.10
2023-05-05T10:48:56.131Z,20.91
2023-05-05T10:51:39.360Z,21.49
2023-05-05T10:54:14.141Z,21.72
2023-05-05T10:56:42.761Z,22.22
2023-05-05T10:59:42.364Z,22.69
2023-05-05T11:02:24.435Z,23.54
2023-05-05T11:05:18.606Z,23.50
2023-05-05T11:07:47.700Z,22.82
2023-05-05T11:10:16.365Z,23.04
2023-05-05T11:13:19.677Z,22.84
2023-05-05T11:15:48.577Z,23.16
2023-05-05T11:18:30.912Z,23.01
2023-05-05T11:21:16.693Z,23.12
2023-05-05T11:23:49.126Z,23.86
2023-05-05T11:26:18.396Z,24.57
2023-05-05T11:29:01.321Z,24.45
2023-05-05T11:31:30.656Z,23.84
2023-05-05T11:34:27.883Z,23.63
2023-05-05T11:37:06.264Z,23.27
2023-05-05T11:39:46.364Z,23.09
2023-05-05T11:42:31.744Z,23.32
2023-05-05T11:44:59.669Z,23.79
2023-05-05T11:47:31.956Z,24.17
2023-05-05T11:50:16.233Z,24.10
2023-05-05T11:52:45.562Z,24.35
2023-05-05T11:55:13.122Z,23.66
2023-05-05T11:57:40.723Z,24.08
2023-05-05T12:00:09.260Z,23.56
2023-05-05T12:02:37.555Z,23.71
2023-05-05T12:05:05.558Z,24.11
2023-05-05T12:07:33.745Z,24.14
2023-05-05T12:10:02.838Z,24.17
2023-05-05T12:12:35.386Z,23.81
2023-05-05T12:15:03.631Z,24.18
2023-05-05T12:17:39.928Z,24.00
2023-05-05T12:20:12.153Z,24.03
2023-05-05T12:22:40.653Z,23.73
2023-05-05T12:25:10.555Z,24.41
2023-05-05T12:27:38.922Z,24.80
2023-05-05T12:30:15.643Z,24.63
2023-05-05T12:32:43.837Z,24.70
2023-05-05T12:35:12.787Z,24.56
2023-05-05T12:37:40.997Z,24.48
2023-05-05T12:40:42.643Z,24.30
2023-05-05T12:43:10.766Z,24.58
2023-05-05T12:45:38.243Z,24.85
2023-05-05T12:48:23.328Z,24.37
2023-05-05T12:50:52.247Z,24.14
2023-05-05T12:53:23.394Z,24.54
2023-05-05T12:55:52.384Z,24.66
2023-05-05T12:58:19.855Z,24.90
2023-05-05T13:01:10.561Z,24.93
2023-05-05T13:03:38.256Z,25.02
2023-05-05T13:06:18.397Z,24.72
2023-05-05T13:08:46.099Z,24.71
2023-05-05T13:11:14.893Z,25.40
2023-05-05T13:13:42.535Z,25.17
2023-05-05T13:16:10.183Z,25.31
2023-05-05T13:18:44.868Z,25.10
2023-05-05T13:21:12.493Z,24.89
2023-05-05T13:23:42.900Z,25.04
2023-05-05T13:26:10.893Z,24.92
2023-05-05T13:28:39.939Z,24.89
2023-05-05T13:31:07.990Z,24.61
2023-05-05T13:33:36.298Z,24.69
2023-05-05T13:36:04.371Z,24.77
2023-05-05T13:38:36.447Z,24.41
2023-05-05T13:41:04.380Z,24.36
2023-05-05T13:43:31.884Z,24.56
2023-05-05T13:46:12.233Z,24.84
2023-05-05T13:48:46.678Z,24.69
2023-05-05T13:51:14.083Z,24.83
2023-05-05T13:53:44.092Z,24.35
2023-05-05T13:56:11.828Z,24.18
2023-05-05T13:58:39.318Z,23.94
2023-05-05T14:01:08.187Z,23.99
2023-05-05T14:03:35.945Z,24.06
2023-05-05T14:06:03.338Z,24.29
2023-05-05T14:08:31.053Z,24.61
2023-05-05T14:10:58.769Z,24.33
2023-05-05T14:13:26.755Z,24.39
2023-05-05T14:15:54.777Z,24.42
2023-05-05T14:18:24.855Z,24.52
2023-05-05T14:20:52.473Z,24.64
2023-05-05T14:23:19.982Z,24.14
2023-05-05T14:25:47.738Z,24.07
2023-05-05T14:28:15.394Z,23.85
2023-05-05T14:30:43.220Z,23.64
2023-05-05T14:33:11.075Z,23.92
2023-05-05T14:35:40.063Z,23.78
2023-05-05T14:38:07.685Z,23.72
2023-05-05T14:40:35.223Z,23.99
2023-05-05T14:43:03.044Z,24.22
2023-05-05T14:45:31.864Z,24.27
2023-05-05T14:47:59.419Z,24.37
2023-05-05T14:50:27.028Z,24.13
2023-05-05T14:52:55.896Z,24.34
2023-05-05T14:55:25.084Z,24.56
2023-05-05T14:57:52.735Z,25.17
2023-05-05T15:00:20.066Z,25.45
2023-05-05T15:02:48.485Z,25.06
2023-05-05T15:05:16.283Z,24.80
2023-05-05T15:07:43.676Z,24.89
2023-05-05T15:10:12.714Z,24.82
2023-05-05T15:12:40.725Z,24.18
2023-05-05T15:15:09.219Z,23.48
2023-05-05T15:17:38.603Z,23.34
2023-05-05T15:20:07.234Z,23.09
2023-05-05T15:22:34.941Z,23.22
2023-05-05T15:25:02.300Z,23.32
2023-05-05T15:27:31.894Z,23.13
2023-05-05T15:29:59.420Z,23.08
2023-05-05T15:32:26.935Z,22.63
2023-05-05T15:34:56.213Z,22.94
2023-05-05T15:37:23.960Z,22.79
2023-05-05T15:39:51.522Z,22.76
2023-05-05T15:42:18.926Z,22.59
2023-05-05T15:44:47.729Z,22.22
2023-05-05T15:47:15.239Z,22.04
2023-05-05T15:49:42.747Z,22.03
2023-05-05T15:52:10.310Z,22.10
2023-05-05T15:54:37.853Z,22.19
2023-05-05T15:57:05.590Z,22.03
2023-05-05T15:59:33.009Z,21.80
2023-05-05T16:02:02.178Z,21.67
2023-05-05T16:04:30.050Z,21.67
2023-05-05T16:06:58.047Z,21.55
2023-05-05T16:09:25.836Z,21.49
2023-05-05T16:11:54.257Z,21.47
2023-05-05T16:14:21.924Z,21.29
2023-05-05T16:16:49.622Z,21.15
2023-05-05T16:19:18.671Z,21.08
2023-05-05T16:21:46.233Z,21.09
2023-05-05T16:24:16.368Z,21.12
2023-05-05T16:26:44.460Z,21.12
2023-05-05T16:29:12.601Z,21.00
2023-05-05T16:31:40.701Z,20.88
2023-05-05T16:34:08.238Z,20.79
2023-05-05T16:36:37.298Z,20.66
2023-05-05T16:39:04.874Z,20.45
2023-05-05T16:41:32.424Z,20.32
2023-05-05T16:44:00.052Z,20.24
2023-05-05T16:46:27.628Z,20.09
2023-05-05T16:48:55.166Z,19.86
2023-05-05T16:51:22.704Z,19.68
2023-05-05T16:53:52.289Z,18.89
2023-05-05T16:56:21.118Z,18.55
2023-05-05T16:58:49.163Z,18.24
2023-05-05T17:01:16.719Z,18.15
2023-05-05T17:03:44.233Z,18.15
2023-05-05T17:06:13.050Z,18.03
2023-05-05T17:08:40.737Z,17.85
2023-05-05T17:11:11.819Z,17.55
2023-05-05T17:13:39.472Z,17.22
2023-05-05T17:16:07.238Z,16.75
2023-05-05T17:18:34.711Z,16.36
2023-05-05T17:21:02.629Z,15.85
2023-05-05T17:23:30.395Z,15.82
2023-05-05T17:25:59.317Z,15.63
2023-05-05T17:28:28.434Z,15.24
2023-05-05T17:30:59.436Z,15.07
2023-05-05T17:33:26.937Z,14.94
2023-05-05T17:35:54.906Z,14.87
2023-05-05T17:38:22.387Z,14.76
2023-05-05T17:40:49.901Z,14.82
2023-05-05T17:43:17.484Z,14.66
2023-05-05T17:45:46.714Z,14.72
2023-05-05T17:48:14.957Z,14.67
2023-05-05T17:50:43.453Z,14.78
2023-05-05T17:53:11.343Z,14.89
2023-05-05T17:55:38.918Z,14.90
2023-05-05T17:58:06.473Z,14.99
2023-05-05T18:00:34.123Z,14.94
2023-05-05T18:03:03.204Z,14.95
2023-05-05T18:05:31.185Z,14.96
2023-05-05T18:07:58.660Z,14.94
2023-05-05T18:10:26.132Z,14.97
2023-05-05T18:12:54.029Z,14.96
2023-05-05T18:15:21.555Z,14.94
2023-05-05T18:17:49.124Z,15.03
2023-05-05T18:20:18.340Z,15.09
2023-05-05T18:22:45.842Z,15.12
2023-05-05T18:25:13.616Z,15.06
2023-05-05T18:27:41.661Z,15.06
2023-05-05T18:30:09.833Z,15.01
2023-05-05T18:32:37.478Z,14.92
2023-05-05T18:35:06.333Z,14.94
2023-05-05T18:37:35.214Z,14.90
2023-05-05T18:40:03.205Z,14.96
2023-05-05T18:42:31.079Z,15.00
2023-05-05T18:44:58.748Z,14.95
2023-05-05T18:47:26.434Z,14.90
2023-05-05T18:49:54.059Z,14.70
2023-05-05T18:52:21.796Z,14.70
2023-05-05T18:54:50.672Z,14.65
2023-05-05T18:57:18.148Z,14.67
2023-05-05T18:59:45.584Z,14.66
2023-05-05T19:02:13.044Z,14.57
2023-05-05T19:04:41.496Z,14.46
2023-05-05T19:07:09.451Z,14.46
2023-05-05T19:09:37.306Z,14.36
2023-05-05T19:12:06.510Z,14.30
2023-05-05T19:14:34.105Z,14.25
2023-05-05T19:17:01.635Z,14.20
2023-05-05T19:19:29.445Z,14.19
2023-05-05T19:21:57.993Z,14.21
2023-05-05T19:24:25.598Z,14.16
2023-05-05T19:26:53.137Z,14.19
2023-05-05T19:29:22.262Z,14.16
2023-05-05T19:31:49.824Z,14.17
2023-05-05T19:34:17.509Z,14.14
2023-05-05T19:36:45.054Z,14.13
2023-05-05T19:39:14.538Z,14.14
2023-05-05T19:41:43.362Z,14.18
2023-05-05T19:44:11.054Z,14.08
2023-05-05T19:46:40.000Z,14.05
2023-05-05T19:49:07.856Z,14.13
2023-05-05T19:51:35.361Z,14.12
2023-05-05T19:54:02.916Z,14.13
2023-05-05T19:56:30.689Z,14.13
2023-05-05T19:59:00.728Z,14.10
2023-05-05T20:01:28.967Z,14.09
2023-05-05T20:03:58.104Z,14.09
2023-05-05T20:06:25.824Z,14.09
2023-05-05T20:08:54.752Z,14.02
2023-05-05T20:11:23.055Z,14.00
2023-05-05T20:13:50.778Z,14.00
2023-05-05T20:16:18.623Z,13.91
2023-05-05T20:18:46.466Z,13.92
2023-05-05T20:21:16.876Z,13.86
2023-05-05T20:23:45.545Z,13.90
2023-05-05T20:26:13.476Z,13.86
2023-05-05T20:28:44.803Z,13.85
2023-05-05T20:31:14.682Z,13.88
2023-05-05T20:33:42.429Z,13.90
2023-05-05T20:36:10.832Z,13.87
2023-05-05T20:38:39.506Z,13.90
2023-05-05T20:41:07.010Z,13.86
2023-05-05T20:43:34.607Z,13.84
2023-05-05T20:46:02.934Z,13.88
2023-05-05T20:48:30.236Z,13.91
2023-05-05T20:50:58.916Z,13.94
2023-05-05T20:53:26.540Z,13.93
2023-05-05T20:55:55.623Z,13.93
2023-05-05T20:58:23.115Z,13.91
2023-05-05T21:00:50.723Z,13.82
2023-05-05T21:03:18.555Z,13.80
2023-05-05T21:05:46.195Z,13.79
2023-05-05T21:08:13.647Z,13.77
2023-05-05T21:10:41.169Z,13.77
2023-05-05T21:13:10.218Z,13.73
2023-05-05T21:15:37.830Z,13.71
2023-05-05T21:18:05.765Z,13.68
2023-05-05T21:20:33.254Z,13.65
2023-05-05T21:23:00.858Z,13.61
2023-05-05T21:25:30.056Z,13.53
2023-05-05T21:27:57.556Z,13.45
2023-05-05T21:30:26.508Z,13.49
2023-05-05T21:32:54.083Z,13.47
2023-05-05T21:35:21.667Z,13.45
2023-05-05T21:37:49.163Z,13.41
2023-05-05T21:40:16.763Z,13.42
2023-05-05T21:42:44.249Z,13.41
2023-05-05T21:45:12.346Z,13.40
2023-05-05T21:47:41.331Z,13.43
2023-05-05T21:50:10.891Z,13.41
2023-05-05T21:52:38.769Z,13.46
2023-05-05T21:55:06.942Z,13.49
2023-05-05T21:57:34.383Z,13.51
2023-05-05T22:00:01.875Z,13.54
2023-05-05T22:02:29.641Z,13.55
2023-05-05T22:04:58.506Z,13.52
2023-05-05T22:07:26.225Z,13.52
2023-05-05T22:09:53.730Z,13.50
2023-05-05T22:12:21.125Z,13.54
2023-05-05T22:14:48.612Z,13.51
2023-05-05T22:17:16.519Z,13.52
2023-05-05T22:19:44.003Z,13.54
2023-05-05T22:22:12.883Z,13.58
2023-05-05T22:24:40.343Z,13.58
2023-05-05T22:27:07.750Z,13.59
2023-05-05T22:29:36.709Z,13.59
2023-05-05T22:32:04.267Z,13.61
2023-05-05T22:34:31.741Z,13.60
2023-05-05T22:36:59.200Z,13.60
2023-05-05T22:39:28.161Z,13.57
2023-05-05T22:41:55.992Z,13.56
2023-05-05T22:44:23.560Z,13.55
2023-05-05T22:46:51.134Z,13.49
2023-05-05T22:49:18.732Z,13.49
2023-05-05T22:51:46.962Z,13.51
2023-05-05T22:54:14.652Z,13.46
2023-05-05T22:56:43.837Z,13.38
2023-05-05T22:59:11.485Z,13.34
2023-05-05T23:01:39.543Z,13.38
2023-05-05T23:04:07.353Z,13.36
2023-05-05T23:06:34.853Z,13.34
2023-05-05T23:09:02.340Z,13.36
2023-05-05T23:11:29.828Z,13.39
2023-05-05T23:13:58.694Z,13.36
2023-05-05T23:16:26.204Z,13.35
2023-05-05T23:18:53.755Z,13.36
2023-05-05T23:21:21.272Z,13.33
2023-05-05T23:23:49.099Z,13.36
2023-05-05T23:26:16.665Z,13.39
2023-05-05T23:28:44.139Z,13.41
2023-05-05T23:31:13.077Z,13.42
2023-05-05T23:33:40.963Z,13.44
2023-05-05T23:36:09.141Z,13.41
2023-05-05T23:38:36.717Z,13.43
2023-05-05T23:41:04.552Z,13.43
2023-05-05T23:43:32.243Z,13.41
2023-05-05T23:45:59.805Z,13.42
2023-05-05T23:48:28.709Z,13.47
2023-05-05T23:50:56.201Z,13.45
2023-05-05T23:53:23.800Z,13.50
2023-05-05T23:55:51.283Z,13.49
2023-05-05T23:58:18.753Z,13.45
